.
WxDataArchive / Data Records for 2009-06-24
2009-06-23 June 2009 2009-06-25

Data Records for Wednesday, 24 June 2009

Time	Temp	Chill	HIndex	Humid	Dewpt	 Wind 	HiWind	WindDir	Rain 	Barom 
-----	----	-----	------	-----	-----	------	------	-------	-----	----- 
00:00	72.5	72.5	72.5	77	64.9	0	0	---	0.00	29.904 
00:05	72.3	72.3	72.3	77	64.7	0	0	---	0.00	29.904 
00:10	72.1	72.1	72.1	77	64.5	0	0	---	0.00	29.904 
00:15	72.0	72.0	72.0	78	64.8	0	0	---	0.00	29.900 
00:20	71.8	71.8	71.8	79	64.9	0	0	---	0.00	29.900 
00:25	71.8	71.8	71.8	79	64.9	0	0	---	0.00	29.900 
00:30	71.6	71.6	71.6	79	64.7	0	0	---	0.00	29.895 
00:35	71.5	71.5	71.5	79	64.6	0	0	---	0.00	29.895 
00:40	71.3	71.3	71.3	80	64.8	0	0	---	0.00	29.895 
00:45	71.1	71.1	71.1	81	65.0	0	0	---	0.00	29.898 
00:50	70.9	70.9	70.9	81	64.8	0	0	---	0.00	29.898 
00:55	70.8	70.8	70.8	81	64.7	0	0	---	0.00	29.898 
01:00	70.6	70.6	70.6	81	64.5	0	0	---	0.00	29.901 
01:05	70.6	70.6	70.6	82	64.8	0	0	---	0.00	29.901 
01:10	70.6	70.6	70.6	83	65.2	0	0	---	0.00	29.901 
01:15	70.4	70.4	70.4	84	65.3	0	0	---	0.00	29.897 
01:20	70.3	70.3	70.3	84	65.2	0	0	---	0.00	29.897 
01:25	70.1	70.1	70.1	84	65.0	0	0	---	0.00	29.897 
01:30	70.1	70.1	70.1	84	65.0	0	0	---	0.00	29.894 
01:35	69.9	69.9	69.9	85	65.2	0	0	---	0.00	29.894 
01:40	69.9	69.9	69.9	85	65.2	0	0	---	0.00	29.894 
01:45	69.8	69.8	69.8	86	65.4	0	0	---	0.00	29.894 
01:50	69.8	69.8	69.8	86	65.4	0	0	---	0.00	29.894 
01:55	69.6	69.6	69.6	86	65.2	0	0	---	0.00	29.894 
02:00	69.6	69.6	69.6	87	65.6	0	0	---	0.00	29.893 
02:05	69.4	69.4	69.4	87	65.4	0	0	---	0.00	29.893 
02:10	69.3	69.3	69.3	87	65.3	0	0	---	0.00	29.893 
02:15	69.3	69.3	69.3	87	65.3	0	0	---	0.00	29.892 
02:20	69.1	69.1	69.1	88	65.4	0	0	---	0.00	29.892 
02:25	69.1	69.1	69.1	88	65.4	0	0	---	0.00	29.892 
02:30	69.1	69.1	69.1	88	65.4	0	0	---	0.00	29.893 
02:35	68.9	68.9	68.9	88	65.2	0	0	---	0.00	29.893 
02:40	68.9	68.9	68.9	89	65.5	0	0	---	0.00	29.893 
02:45	68.9	68.9	68.9	89	65.5	0	0	---	0.00	29.894 
02:50	68.8	68.8	68.8	89	65.4	0	0	---	0.00	29.894 
02:55	68.8	68.8	68.8	89	65.4	0	0	---	0.00	29.894 
03:00	68.6	68.6	68.6	89	65.2	0	0	---	0.00	29.891 
03:05	68.6	68.6	68.6	89	65.2	0	0	---	0.00	29.891 
03:10	68.6	68.6	68.6	89	65.2	0	0	---	0.00	29.891 
03:15	68.4	68.4	68.4	89	65.0	0	0	---	0.00	29.893 
03:20	68.4	68.4	68.4	89	65.0	0	0	---	0.00	29.893 
03:25	68.4	68.4	68.4	89	65.0	0	0	---	0.00	29.893 
03:30	68.3	68.3	68.3	90	65.2	0	0	---	0.00	29.890 
03:35	68.3	68.3	68.3	90	65.2	0	0	---	0.00	29.890 
03:40	68.1	68.1	68.1	90	65.0	0	0	---	0.00	29.890 
03:45	68.1	68.1	68.1	90	65.0	0	0	---	0.00	29.887 
03:50	68.1	68.1	68.1	90	65.0	0	0	---	0.00	29.887 
03:55	68.1	68.1	68.1	90	65.0	0	0	---	0.00	29.887 
04:00	67.9	67.9	67.9	91	65.2	0	0	---	0.00	29.887 
04:05	67.9	67.9	67.9	91	65.2	0	0	---	0.00	29.887 
04:10	67.9	67.9	67.9	91	65.2	0	0	---	0.00	29.887 
04:15	67.9	67.9	67.9	91	65.2	0	0	---	0.00	29.893 
04:20	67.9	67.9	67.9	91	65.2	0	0	---	0.00	29.893 
04:25	67.9	67.9	67.9	91	65.2	0	0	---	0.00	29.893 
04:30	67.8	67.8	67.8	91	65.1	0	0	---	0.00	29.892 
04:35	67.8	67.8	67.8	91	65.1	0	0	---	0.00	29.892 
04:40	67.8	67.8	67.8	92	65.4	0	0	---	0.00	29.892 
04:45	67.8	67.8	67.8	92	65.4	0	0	---	0.00	29.891 
04:50	67.6	67.6	67.6	92	65.2	0	0	---	0.00	29.891 
04:55	67.6	67.6	67.6	92	65.2	0	0	---	0.00	29.891 
05:00	67.6	67.6	67.6	92	65.2	0	0	---	0.00	29.893 
05:05	67.6	67.6	67.6	92	65.2	0	0	---	0.00	29.893 
05:10	67.6	67.6	67.6	92	65.2	0	0	---	0.00	29.893 
05:15	67.4	67.4	67.4	92	65.0	0	0	---	0.00	29.894 
05:20	67.4	67.4	67.4	92	65.0	0	0	---	0.00	29.894 
05:25	67.4	67.4	67.4	92	65.0	0	0	---	0.00	29.894 
05:30	67.3	67.3	67.3	92	64.9	0	0	---	0.00	29.896 
05:35	67.3	67.3	67.3	92	64.9	0	0	---	0.00	29.896 
05:40	67.3	67.3	67.3	92	64.9	0	0	---	0.00	29.896 
05:45	67.1	67.1	67.1	93	65.0	0	0	---	0.00	29.898 
05:50	67.1	67.1	67.1	93	65.0	0	0	---	0.00	29.898 
05:55	67.1	67.1	67.1	93	65.0	0	0	---	0.00	29.898 
06:00	66.9	66.9	66.9	93	64.8	0	0	---	0.00	29.904 
06:05	66.9	66.9	66.9	93	64.8	0	0	---	0.00	29.904 
06:10	66.9	66.9	66.9	93	64.8	0	0	---	0.00	29.904 
06:15	66.9	66.9	66.9	93	64.8	0	0	---	0.00	29.911 
06:20	66.9	66.9	66.9	93	64.8	0	0	---	0.00	29.911 
06:25	66.8	66.8	66.8	93	64.7	0	0	---	0.00	29.911 
06:30	66.8	66.8	66.8	93	64.7	0	0	---	0.00	29.913 
06:35	66.9	66.9	66.9	94	65.1	0	0	---	0.00	29.913 
06:40	66.9	66.9	66.9	94	65.1	0	0	---	0.00	29.913 
06:45	66.9	66.9	66.9	94	65.1	0	0	---	0.00	29.919 
06:50	67.1	67.1	67.1	94	65.3	0	0	---	0.00	29.919 
06:55	67.3	67.3	67.3	94	65.5	0	0	---	0.00	29.919 
07:00	67.4	67.4	67.4	94	65.6	0	0	---	0.00	29.924 
07:05	67.6	67.6	67.6	94	65.8	0	0	---	0.00	29.924 
07:10	67.8	67.8	67.8	94	66.0	0	0	---	0.00	29.924 
07:15	68.1	68.1	68.1	94	66.3	0	1	158	0.00	29.918 
07:20	68.4	68.4	68.4	94	66.6	0	0	---	0.00	29.918 
07:25	68.9	68.9	68.9	94	67.1	0	0	---	0.00	29.918 
07:30	69.4	69.4	69.4	93	67.3	0	0	---	0.00	29.915 
07:35	69.9	69.9	69.9	93	67.8	0	0	---	0.00	29.915 
07:40	70.6	70.6	70.6	92	68.2	0	0	---	0.00	29.915 
07:45	71.3	71.3	71.3	90	68.2	0	0	---	0.00	29.923 
07:50	72.0	72.0	72.0	86	67.6	0	1	68	0.00	29.923 
07:55	72.8	72.8	72.8	82	67.0	0	1	68	0.00	29.923 
08:00	73.9	73.9	73.9	78	66.6	0	1	68	0.00	29.925 
08:05	74.9	74.9	74.9	74	66.0	0	1	68	0.00	29.925 
08:10	75.8	75.8	77.3	72	66.1	0	1	68	0.00	29.925 
08:15	76.5	76.5	78.2	70	66.0	0	2	68	0.00	29.927 
08:20	77.0	77.0	78.8	69	66.0	0	2	68	0.00	29.927 
08:25	77.6	77.6	79.5	67	65.8	0	2	68	0.00	29.927 
08:30	77.9	77.9	79.8	66	65.6	0	1	68	0.00	29.924 
08:35	78.5	78.5	80.4	65	65.7	0	1	68	0.00	29.924 
08:40	79.0	79.0	80.9	63	65.3	0	1	68	0.00	29.924 
08:45	79.4	79.4	81.5	64	66.1	0	1	68	0.00	29.923 
08:50	79.9	79.9	81.9	62	65.7	0	1	68	0.00	29.923 
08:55	80.3	80.3	82.3	61	65.6	0	1	68	0.00	29.923 
09:00	80.7	80.7	82.4	58	64.5	1	2	292	0.00	29.916 
09:05	80.9	80.9	82.5	57	64.2	0	2	225	0.00	29.916 
09:10	81.1	81.1	82.9	58	64.9	0	2	225	0.00	29.916 
09:15	81.4	81.4	83.3	58	65.2	0	1	225	0.00	29.916 
09:20	82.0	82.0	84.4	60	66.7	0	1	135	0.00	29.916 
09:25	82.6	82.6	84.5	56	65.3	0	2	135	0.00	29.916 
09:30	83.0	83.0	84.7	54	64.6	0	1	135	0.00	29.918 
09:35	83.2	83.2	84.7	53	64.3	0	2	270	0.00	29.918 
09:40	83.4	83.4	85.2	54	65.0	0	2	270	0.00	29.918 
09:45	83.6	83.6	85.9	56	66.2	0	2	270	0.00	29.913 
09:50	83.8	83.8	85.7	54	65.3	0	2	270	0.00	29.913 
09:55	84.1	84.1	85.9	53	65.1	0	2	270	0.00	29.913 
10:00	84.3	84.3	86.0	52	64.7	1	2	270	0.00	29.918 
10:05	84.5	84.5	86.5	53	65.5	0	2	270	0.00	29.918 
10:10	84.7	84.7	86.3	51	64.5	1	3	270	0.00	29.918 
10:15	84.9	84.9	86.6	51	64.7	1	3	270	0.00	29.919 
10:20	85.1	85.1	87.1	52	65.5	1	2	270	0.00	29.919 
10:25	85.3	85.3	87.4	52	65.6	1	2	270	0.00	29.919 
10:30	85.7	85.7	88.0	52	66.0	0	1	270	0.00	29.921 
10:35	86.1	86.1	88.6	52	66.4	0	2	270	0.00	29.921 
10:40	86.1	86.1	88.0	50	65.3	1	2	270	0.00	29.921 
10:45	86.1	86.1	88.6	52	66.4	0	2	315	0.00	29.914 
10:50	86.3	86.3	89.3	53	67.1	1	2	315	0.00	29.914 
10:55	87.0	87.0	90.4	53	67.8	1	2	315	0.00	29.914 
11:00	87.4	87.4	90.1	50	66.4	0	1	338	0.00	29.911 
11:05	87.6	87.6	90.4	50	66.6	1	2	180	0.00	29.911 
11:10	87.6	87.6	90.7	51	67.2	0	3	248	0.00	29.911 
11:15	87.6	87.6	90.4	50	66.6	1	3	248	0.00	29.918 
11:20	87.6	87.6	90.0	49	66.0	1	3	248	0.00	29.918 
11:25	87.8	87.8	91.1	51	67.4	1	3	248	0.00	29.918 
11:30	88.0	88.0	91.8	52	68.1	1	2	90	0.00	29.910 
11:35	88.2	88.2	91.8	51	67.7	0	1	90	0.00	29.910 
11:40	88.4	88.4	91.7	50	67.4	0	2	135	0.00	29.910 
11:45	88.6	88.6	91.3	48	66.4	0	2	135	0.00	29.909 
11:50	88.6	88.6	91.7	49	67.0	1	2	180	0.00	29.909 
11:55	88.6	88.6	92.1	50	67.5	1	3	270	0.00	29.909 
12:00	88.8	88.8	92.0	49	67.1	0	2	270	0.00	29.909 
12:05	89.0	89.0	92.0	48	66.7	1	2	270	0.00	29.909 
12:10	89.7	89.7	92.4	46	66.1	1	3	270	0.00	29.909 
12:15	89.9	89.9	93.5	48	67.5	0	2	225	0.00	29.907 
12:20	89.5	89.5	92.1	46	65.9	1	2	225	0.00	29.907 
12:25	89.3	89.3	92.5	48	67.0	0	2	22	0.00	29.907 
12:30	89.5	89.5	93.7	50	68.4	1	2	22	0.00	29.907 
12:35	89.5	89.5	93.2	49	67.8	1	3	22	0.00	29.907 
12:40	89.7	89.7	92.8	47	66.7	1	3	0	0.00	29.907 
12:45	90.1	90.1	93.1	46	66.5	1	3	270	0.00	29.904 
12:50	90.5	90.5	93.8	46	66.8	0	2	270	0.00	29.904 
12:55	91.2	91.2	95.9	48	68.7	0	3	270	0.00	29.904 
13:00	91.0	91.0	94.2	45	66.7	1	3	270	0.00	29.902 
13:05	91.2	91.2	95.5	47	68.1	0	3	270	0.00	29.902 
13:10	91.4	91.4	95.8	47	68.3	0	1	292	0.00	29.902 
13:15	91.4	91.4	95.4	46	67.7	1	3	315	0.00	29.901 
13:20	90.7	90.7	94.5	47	67.7	1	3	292	0.00	29.901 
13:25	91.0	91.0	95.6	48	68.5	0	2	292	0.00	29.901 
13:30	91.4	91.4	95.8	47	68.3	1	2	292	0.00	29.901 
13:35	91.2	91.2	95.0	46	67.5	0	3	292	0.00	29.901 
13:40	91.4	91.4	95.4	46	67.7	1	2	292	0.00	29.901 
13:45	91.2	91.2	95.5	47	68.1	1	2	292	0.00	29.898 
13:50	91.4	91.4	94.5	44	66.4	1	4	270	0.00	29.898 
13:55	91.4	91.4	94.9	45	67.0	1	3	270	0.00	29.898 
14:00	91.6	91.6	94.4	43	65.9	1	2	270	0.00	29.889 
14:05	92.1	92.1	96.2	45	67.7	1	4	270	0.00	29.889 
14:10	92.1	92.1	94.8	42	65.7	1	3	270	0.00	29.889 
14:15	91.8	91.8	96.1	46	68.0	0	2	270	0.00	29.891 
14:20	92.5	92.5	97.4	46	68.7	0	2	270	0.00	29.891 
14:25	92.9	92.9	98.2	46	69.0	0	2	338	0.00	29.891 
14:30	93.2	93.2	97.2	43	67.3	1	4	248	0.00	29.875 
14:35	92.9	92.9	96.7	43	67.1	0	4	68	0.00	29.875 
14:40	92.7	92.7	95.8	42	66.2	1	3	292	0.00	29.875 
14:45	92.5	92.5	95.9	43	66.7	0	2	292	0.00	29.869 
14:50	92.7	92.7	95.8	42	66.2	1	2	315	0.00	29.869 
14:55	92.7	92.7	95.4	41	65.5	1	2	315	0.00	29.869 
15:00	92.7	92.7	94.5	39	64.1	1	4	270	0.00	29.865 
15:05	92.9	92.9	95.7	41	65.7	0	2	292	0.00	29.865 
15:10	93.4	93.4	98.6	45	68.8	0	3	292	0.00	29.865 
15:15	93.6	93.6	95.5	38	64.1	1	3	292	0.00	29.863 
15:20	93.6	93.6	95.5	38	64.1	0	3	292	0.00	29.863 
15:25	93.6	93.6	94.7	36	62.6	0	2	292	0.00	29.863 
15:30	94.0	94.0	96.2	38	64.5	0	1	292	0.00	29.863 
15:35	94.5	94.5	95.7	35	62.6	0	3	292	0.00	29.863 
15:40	94.5	94.5	98.1	40	66.4	0	2	292	0.00	29.863 
15:45	94.5	94.5	97.1	38	64.9	1	3	292	0.00	29.859 
15:50	94.7	94.7	96.9	37	64.3	1	2	292	0.00	29.859 
15:55	94.7	94.7	97.4	38	65.1	1	3	292	0.00	29.859 
16:00	94.7	94.7	97.9	39	65.8	0	2	292	0.00	29.856 
16:05	94.7	94.7	99.0	41	67.3	0	3	45	0.00	29.856 
16:10	94.5	94.5	95.7	35	62.6	0	2	45	0.00	29.856 
16:15	94.5	94.5	96.1	36	63.4	1	3	0	0.00	29.850 
16:20	94.7	94.7	96.0	35	62.7	0	2	22	0.00	29.850 
16:25	94.9	94.9	97.3	37	64.5	0	1	22	0.00	29.850 
16:30	94.7	94.7	95.6	34	61.9	0	1	22	0.00	29.843 
16:35	94.9	94.9	95.5	33	61.2	0	3	68	0.00	29.843 
16:40	94.9	94.9	95.5	33	61.2	0	2	68	0.00	29.843 
16:45	95.1	95.1	96.2	34	62.3	0	1	68	0.00	29.843 
16:50	94.7	94.7	95.6	34	61.9	0	2	68	0.00	29.843 
16:55	94.5	94.5	95.7	35	62.6	0	1	68	0.00	29.843 
17:00	94.5	94.5	97.6	39	65.7	0	1	68	0.00	29.843 
17:05	94.5	94.5	96.1	36	63.4	1	4	68	0.00	29.843 
17:10	94.0	94.0	95.8	37	63.7	0	1	68	0.00	29.843 
17:15	93.8	93.8	94.6	35	61.9	0	1	68	0.00	29.846 
17:20	93.6	93.6	94.3	35	61.8	0	1	68	0.00	29.846 
17:25	93.4	93.4	93.6	34	60.8	0	1	68	0.00	29.846 
17:30	92.9	92.9	93.6	36	62.0	0	1	68	0.00	29.846 
17:35	92.5	92.5	93.0	36	61.6	0	1	68	0.00	29.846 
17:40	92.1	92.1	93.1	38	62.8	0	2	45	0.00	29.846 
17:45	91.4	91.4	92.1	38	62.2	0	1	45	0.00	29.848 
17:50	91.2	91.2	93.3	42	64.9	0	0	---	0.00	29.848 
17:55	91.0	91.0	92.6	41	64.0	0	0	---	0.00	29.848 
18:00	90.7	90.7	91.4	39	62.3	0	1	45	0.00	29.846 
18:05	90.7	90.7	92.1	41	63.7	0	1	45	0.00	29.846 
18:10	90.7	90.7	92.9	43	65.1	0	0	---	0.00	29.846 
18:15	90.5	90.5	92.2	42	64.2	0	0	---	0.00	29.837 
18:20	90.3	90.3	92.2	43	64.7	0	0	---	0.00	29.837 
18:25	90.3	90.3	92.6	44	65.4	0	0	---	0.00	29.837 
18:30	90.1	90.1	91.9	43	64.5	0	0	---	0.00	29.835 
18:35	90.1	90.1	92.7	45	65.9	0	0	---	0.00	29.835 
18:40	89.9	89.9	91.9	44	65.0	0	0	---	0.00	29.835 
18:45	89.9	89.9	91.6	43	64.4	0	0	---	0.00	29.837 
18:50	89.9	89.9	91.6	43	64.4	0	1	45	0.00	29.837 
18:55	89.9	89.9	91.9	44	65.0	0	0	---	0.00	29.837 
19:00	89.7	89.7	91.6	44	64.8	0	0	---	0.00	29.836 
19:05	89.7	89.7	92.0	45	65.5	0	1	45	0.00	29.836 
19:10	89.7	89.7	92.4	46	66.1	0	3	45	0.00	29.836 
19:15	89.7	89.7	92.8	47	66.7	0	2	338	0.00	29.832 
19:20	89.7	89.7	92.8	47	66.7	1	2	315	0.00	29.832 
19:25	89.7	89.7	93.2	48	67.4	0	2	315	0.00	29.832 
19:30	89.9	89.9	94.0	49	68.1	0	2	315	0.00	29.830 
19:35	89.5	89.5	93.2	49	67.8	1	3	315	0.00	29.830 
19:40	89.0	89.0	92.8	50	67.9	0	1	315	0.00	29.830 
19:45	88.6	88.6	92.5	51	68.1	0	1	315	0.00	29.828 
19:50	88.6	88.6	92.5	51	68.1	0	1	315	0.00	29.828 
19:55	88.4	88.4	92.1	51	67.9	0	1	315	0.00	29.828 
20:00	88.4	88.4	92.1	51	67.9	0	1	315	0.00	29.834 
20:05	88.4	88.4	92.1	51	67.9	0	1	315	0.00	29.834 
20:10	88.4	88.4	91.7	50	67.4	0	2	315	0.00	29.834 
20:15	88.2	88.2	91.8	51	67.7	0	2	315	0.00	29.830 
20:20	88.0	88.0	91.4	51	67.6	0	2	315	0.00	29.830 
20:25	87.8	87.8	91.1	51	67.4	0	2	315	0.00	29.830 
20:30	87.6	87.6	91.1	52	67.8	1	2	315	0.00	29.831 
20:35	87.4	87.4	91.1	53	68.1	1	2	315	0.00	29.831 
20:40	87.0	87.0	90.8	54	68.3	0	1	315	0.00	29.831 
20:45	86.7	86.7	90.3	54	68.0	0	1	315	0.00	29.828 
20:50	86.5	86.5	90.3	55	68.4	0	1	315	0.00	29.828 
20:55	86.3	86.3	89.9	55	68.2	0	1	315	0.00	29.828 
21:00	86.1	86.1	89.9	56	68.5	0	2	315	0.00	29.830 
21:05	85.7	85.7	89.5	57	68.7	0	1	315	0.00	29.830 
21:10	85.5	85.5	89.2	57	68.5	0	1	315	0.00	29.830 
21:15	85.3	85.3	89.2	58	68.8	0	1	315	0.00	29.831 
21:20	85.1	85.1	88.8	58	68.6	0	1	315	0.00	29.831 
21:25	84.9	84.9	88.8	59	68.9	0	1	315	0.00	29.831 
21:30	84.7	84.7	88.4	59	68.8	0	1	315	0.00	29.835 
21:35	84.7	84.7	88.7	60	69.2	0	1	315	0.00	29.835 
21:40	84.5	84.5	88.4	60	69.1	0	2	315	0.00	29.835 
21:45	84.3	84.3	88.0	60	68.9	0	1	315	0.00	29.837 
21:50	84.1	84.1	87.7	60	68.7	0	1	315	0.00	29.837 
21:55	84.1	84.1	87.7	60	68.7	0	1	315	0.00	29.837 
22:00	84.1	84.1	87.7	60	68.7	0	2	315	0.00	29.837 
22:05	84.0	84.0	87.5	60	68.6	0	1	315	0.00	29.837 
22:10	84.0	84.0	87.5	60	68.6	0	1	315	0.00	29.837 
22:15	83.8	83.8	87.5	61	68.9	0	1	315	0.00	29.837 
22:20	83.6	83.6	87.1	61	68.7	0	1	315	0.00	29.837 
22:25	83.6	83.6	87.1	61	68.7	0	1	315	0.00	29.837 
22:30	83.4	83.4	87.0	62	69.0	0	1	315	0.00	29.840 
22:35	83.4	83.4	87.0	62	69.0	0	2	315	0.00	29.840 
22:40	83.2	83.2	86.7	62	68.8	0	1	315	0.00	29.840 
22:45	83.0	83.0	86.4	62	68.6	0	2	315	0.00	29.842 
22:50	83.0	83.0	86.6	63	69.1	0	1	315	0.00	29.842 
22:55	82.6	82.6	85.9	63	68.7	0	1	315	0.00	29.842 
23:00	82.4	82.4	85.8	64	69.0	0	1	315	0.00	29.848 
23:05	82.4	82.4	85.8	64	69.0	0	1	315	0.00	29.848 
23:10	82.2	82.2	85.7	65	69.2	0	1	315	0.00	29.848 
23:15	82.0	82.0	85.4	65	69.0	0	1	315	0.00	29.843 
23:20	81.8	81.8	85.3	66	69.3	0	0	---	0.00	29.843 
23:25	81.4	81.4	84.6	66	68.9	0	1	315	0.00	29.843 
23:30	81.2	81.2	84.5	67	69.2	0	0	---	0.00	29.843 
23:35	81.1	81.1	84.3	67	69.1	0	1	315	0.00	29.843 
23:40	81.1	81.1	84.5	68	69.5	0	1	315	0.00	29.843 
23:45	80.9	80.9	84.1	68	69.3	0	1	315	0.00	29.847 
23:50	80.7	80.7	84.0	69	69.6	0	1	315	0.00	29.847 
23:55	80.7	80.7	84.0	69	69.6	0	1	315	0.00	29.847 

CoCoRaHS
IN-AL-39
A2 Web Hosting
Creative Commons License
GoDaddy
search engine by freefind advanced

loaded 2018-11-13 18:21:55 • last modified 2010-11-18 10:43:29
Privacy PolicyDisclaimer
• wx.awcolley.com is powered by PmWiki v.2002016 •
• all content (unless otherwise noted) © 2018 A W Colley